createdAt,value
2022-09-07T00:00:53.731Z,100350.88
2022-09-07T00:03:21.080Z,100358.09
2022-09-07T00:05:49.470Z,100353.75
2022-09-07T00:08:18.136Z,100360.97
2022-09-07T00:11:06.614Z,100330.63
2022-09-07T00:13:35.847Z,100384.94
2022-09-07T00:16:27.572Z,100478.91
2022-09-07T00:18:55.724Z,100516.03
2022-09-07T00:21:22.389Z,100513.38
2022-09-07T00:23:50.278Z,100544.19
2022-09-07T00:26:20.382Z,100591.31
2022-09-07T00:28:47.291Z,100575.44
2022-09-07T00:31:22.298Z,100563.25
2022-09-07T00:33:50.640Z,100568.25
2022-09-07T00:36:18.866Z,100570.63
2022-09-07T00:38:45.698Z,100564.34
2022-09-07T00:41:13.353Z,100590.69
2022-09-07T00:43:45.437Z,100560.09
2022-09-07T00:46:14.921Z,100595.09
2022-09-07T00:49:02.806Z,100605.25
2022-09-07T00:51:37.190Z,100597.50
2022-09-07T00:54:11.042Z,100584.63
2022-09-07T00:56:40.281Z,100616.22
2022-09-07T00:59:07.695Z,100627.84
2022-09-07T01:01:34.579Z,100625.13
2022-09-07T01:04:02.083Z,100605.13
2022-09-07T01:06:36.429Z,100568.84
2022-09-07T01:09:06.999Z,100609.53
2022-09-07T01:11:36.925Z,100606.97
2022-09-07T01:14:07.033Z,100575.97
2022-09-07T01:16:51.809Z,100602.22
2022-09-07T01:19:24.651Z,100599.59
2022-09-07T01:21:54.182Z,100605.00
2022-09-07T01:24:42.871Z,100593.03
2022-09-07T01:27:40.345Z,100599.03
2022-09-07T01:30:10.119Z,100564.88
2022-09-07T01:33:10.781Z,100592.09
2022-09-07T01:35:44.862Z,100585.81
2022-09-07T01:38:23.976Z,100593.50
2022-09-07T01:41:04.866Z,100595.47
2022-09-07T01:43:37.294Z,100574.19
2022-09-07T01:46:06.833Z,100614.84
2022-09-07T01:48:33.955Z,100605.22
2022-09-07T01:51:03.031Z,100613.09
2022-09-07T01:53:47.488Z,100585.69
2022-09-07T01:56:19.443Z,100608.66
2022-09-07T01:58:52.557Z,100594.03
2022-09-07T02:01:28.482Z,100595.69
2022-09-07T02:04:08.900Z,100582.66
2022-09-07T02:06:48.422Z,100584.28
2022-09-07T02:09:25.233Z,100573.72
2022-09-07T02:11:52.112Z,100578.09
2022-09-07T02:14:25.848Z,100566.97
2022-09-07T02:17:06.863Z,100544.53
2022-09-07T02:19:41.101Z,100558.66
2022-09-07T02:22:14.748Z,100552.25
2022-09-07T02:24:43.988Z,100524.28
2022-09-07T02:27:19.766Z,100522.47
2022-09-07T02:29:47.102Z,100492.09
2022-09-07T02:32:13.771Z,100515.59
2022-09-07T02:34:40.402Z,100508.59
2022-09-07T02:37:09.011Z,100515.13
2022-09-07T02:39:35.837Z,100452.25
2022-09-07T02:42:03.001Z,100479.41
2022-09-07T02:44:32.520Z,100430.50
2022-09-07T02:47:20.900Z,100429.50
2022-09-07T02:50:06.247Z,100462.28
2022-09-07T02:52:42.923Z,100467.34
2022-09-07T02:55:34.565Z,100456.75
2022-09-07T02:58:16.390Z,100451.25
2022-09-07T03:01:06.364Z,100441.09
2022-09-07T03:03:48.368Z,100438.78
2022-09-07T03:06:28.520Z,100376.13
2022-09-07T03:08:58.174Z,100381.66
2022-09-07T03:11:25.294Z,100426.84
2022-09-07T03:13:51.859Z,100423.09
2022-09-07T03:16:18.687Z,100420.94
2022-09-07T03:18:45.423Z,100422.97
2022-09-07T03:21:12.515Z,100423.31
2022-09-07T03:23:39.133Z,100398.50
2022-09-07T03:26:06.273Z,100406.47
2022-09-07T03:28:32.899Z,100405.63
2022-09-07T03:31:01.000Z,100398.31
2022-09-07T03:33:27.982Z,100389.31
2022-09-07T03:35:59.828Z,100396.78
2022-09-07T03:38:26.910Z,100395.97
2022-09-07T03:41:04.801Z,100413.63
2022-09-07T03:43:32.258Z,100391.06
2022-09-07T03:46:00.981Z,100394.78
2022-09-07T03:48:31.084Z,100419.69
2022-09-07T03:51:02.889Z,100406.56
2022-09-07T03:53:37.653Z,100410.75
2022-09-07T03:56:09.884Z,100424.13
2022-09-07T03:58:36.563Z,100426.59
2022-09-07T04:01:12.272Z,100434.50
2022-09-07T04:03:39.715Z,100380.09
2022-09-07T04:06:07.257Z,100382.13
2022-09-07T04:08:35.591Z,100425.06
2022-09-07T04:11:04.255Z,100423.47
2022-09-07T04:13:31.710Z,100420.22
2022-09-07T04:15:58.510Z,100422.81
2022-09-07T04:18:25.445Z,100424.84
2022-09-07T04:20:52.256Z,100396.56
2022-09-07T04:23:19.672Z,100425.81
2022-09-07T04:25:50.005Z,100427.91
2022-09-07T04:28:17.638Z,100398.34
2022-09-07T04:30:44.708Z,100430.00
2022-09-07T04:33:11.590Z,100429.09
2022-09-07T04:35:39.572Z,100441.78
2022-09-07T04:38:07.057Z,100435.81
2022-09-07T04:40:34.422Z,100442.78
2022-09-07T04:43:01.079Z,100386.59
2022-09-07T04:45:27.823Z,100413.69
2022-09-07T04:47:54.395Z,100442.81
2022-09-07T04:50:21.173Z,100431.09
2022-09-07T04:52:47.706Z,100434.88
2022-09-07T04:55:14.382Z,100426.78
2022-09-07T04:57:41.025Z,100443.66
2022-09-07T05:00:08.892Z,100440.31
2022-09-07T05:02:35.591Z,100436.50
2022-09-07T05:05:02.992Z,100451.84
2022-09-07T05:07:30.124Z,100351.28
2022-09-07T05:09:57.286Z,100413.63
2022-09-07T05:12:24.024Z,100428.22
2022-09-07T05:14:50.612Z,100434.88
2022-09-07T05:17:17.262Z,100441.91
2022-09-07T05:19:43.944Z,100436.50
2022-09-07T05:22:10.932Z,100444.06
2022-09-07T05:24:38.053Z,100451.16
2022-09-07T05:27:04.882Z,100441.38
2022-09-07T05:32:18.101Z,100435.72
2022-09-07T05:34:45.465Z,100440.00
2022-09-07T05:37:12.704Z,100430.88
2022-09-07T05:39:39.259Z,100451.09
2022-09-07T05:42:05.962Z,100443.25
2022-09-07T05:44:48.103Z,100448.31
2022-09-07T05:47:15.016Z,100453.28
2022-09-07T05:49:41.665Z,100450.38
2022-09-07T05:52:08.236Z,100454.56
2022-09-07T05:54:35.111Z,100453.34
2022-09-07T05:57:03.587Z,100456.69
2022-09-07T05:59:30.292Z,100456.03
2022-09-07T06:01:57.009Z,100467.09
2022-09-07T06:04:23.878Z,100467.91
2022-09-07T06:07:17.599Z,100471.25
2022-09-07T06:12:24.443Z,100478.53
2022-09-07T06:14:51.017Z,100460.84
2022-09-07T06:17:17.546Z,100475.63
2022-09-07T06:19:44.114Z,100483.97
2022-09-07T06:22:10.663Z,100461.25
2022-09-07T06:24:37.314Z,100484.78
2022-09-07T06:27:04.602Z,100477.53
2022-09-07T06:29:31.202Z,100481.88
2022-09-07T06:34:44.669Z,100443.47
2022-09-07T06:37:11.614Z,100463.63
2022-09-07T06:39:38.182Z,100467.97
2022-09-07T06:42:04.932Z,100487.94
2022-09-07T06:44:31.564Z,100487.31
2022-09-07T06:49:28.311Z,100470.44
2022-09-07T06:51:55.057Z,100500.00
2022-09-07T06:57:09.398Z,100498.22
2022-09-07T06:59:36.922Z,100491.47
2022-09-07T07:02:04.662Z,100489.81
2022-09-07T07:04:32.401Z,100484.53
2022-09-07T07:07:00.691Z,100474.78
2022-09-07T07:09:27.232Z,100480.94
2022-09-07T07:11:53.844Z,100492.13
2022-09-07T07:14:21.206Z,100490.56
2022-09-07T07:16:48.152Z,100439.97
2022-09-07T07:19:15.396Z,100488.81
2022-09-07T07:22:07.871Z,100475.09
2022-09-07T07:24:28.970Z,100507.75
2022-09-07T07:26:55.805Z,100486.53
2022-09-07T07:29:24.031Z,100476.16
2022-09-07T07:31:52.869Z,100499.63
2022-09-07T07:34:19.457Z,100520.63
2022-09-07T07:36:46.110Z,100525.09
2022-09-07T07:42:03.502Z,100482.72
2022-09-07T07:44:32.380Z,100495.66
2022-09-07T07:46:59.042Z,100529.31
2022-09-07T07:49:26.144Z,100520.41
2022-09-07T07:54:43.433Z,100526.84
2022-09-07T07:57:10.347Z,100520.50
2022-09-07T07:59:37.001Z,100495.91
2022-09-07T08:02:05.701Z,100524.31
2022-09-07T08:04:33.881Z,100518.50
2022-09-07T08:07:01.949Z,100528.72
2022-09-07T08:09:30.076Z,100528.41
2022-09-07T08:11:57.007Z,100533.44
2022-09-07T08:14:23.532Z,100505.78
2022-09-07T08:16:50.287Z,100533.38
2022-09-07T08:19:16.832Z,100542.31
2022-09-07T08:21:43.282Z,100544.28
2022-09-07T08:24:10.067Z,100508.91
2022-09-07T08:26:36.555Z,100558.94
2022-09-07T08:29:03.314Z,100555.06
2022-09-07T08:31:29.922Z,100556.69
2022-09-07T08:33:56.646Z,100559.19
2022-09-07T08:36:23.790Z,100570.41
2022-09-07T08:38:50.460Z,100569.72
2022-09-07T08:41:35.755Z,100563.72
2022-09-07T08:44:12.290Z,100561.25
2022-09-07T08:46:44.062Z,100564.72
2022-09-07T08:49:17.710Z,100574.88
2022-09-07T08:51:54.607Z,100562.06
2022-09-07T08:54:21.190Z,100554.41
2022-09-07T08:59:41.865Z,100578.88
2022-09-07T09:02:36.559Z,100579.41
2022-09-07T09:05:20.558Z,100557.78
2022-09-07T09:07:57.383Z,100560.00
2022-09-07T09:10:29.994Z,100574.03
2022-09-07T09:12:58.779Z,100576.34
2022-09-07T09:16:01.209Z,100574.31
2022-09-07T09:18:39.959Z,100572.50
2022-09-07T09:21:13.477Z,100561.25
2022-09-07T09:23:41.864Z,100571.28
2022-09-07T09:26:29.147Z,100577.31
2022-09-07T09:28:55.839Z,100563.78
2022-09-07T09:31:25.841Z,100566.06
2022-09-07T09:34:13.677Z,100567.09
2022-09-07T09:36:52.490Z,100537.91
2022-09-07T09:39:36.153Z,100555.91
2022-09-07T09:42:11.836Z,100543.38
2022-09-07T09:44:38.701Z,100548.19
2022-09-07T09:49:53.641Z,100533.41
2022-09-07T09:52:31.785Z,100533.13
2022-09-07T09:55:23.591Z,100529.72
2022-09-07T10:01:21.131Z,100551.63
2022-09-07T10:06:16.259Z,100542.78
2022-09-07T10:08:55.391Z,100531.69
2022-09-07T10:14:31.832Z,100526.25
2022-09-07T10:16:59.144Z,100524.72
2022-09-07T10:19:36.067Z,100513.84
2022-09-07T10:22:05.127Z,100513.59
2022-09-07T10:24:37.096Z,100522.88
2022-09-07T10:27:24.267Z,100509.44
2022-09-07T10:29:50.827Z,100504.72
2022-09-07T10:32:23.405Z,100510.16
2022-09-07T10:35:05.255Z,100511.94
2022-09-07T10:37:59.391Z,100504.28
2022-09-07T10:40:34.942Z,100504.50
2022-09-07T10:43:23.393Z,100506.56
2022-09-07T10:45:56.137Z,100506.66
2022-09-07T10:48:34.955Z,100505.25
2022-09-07T10:51:13.941Z,100511.44
2022-09-07T10:54:30.707Z,100502.75
2022-09-07T10:57:20.507Z,100506.94
2022-09-07T11:00:10.070Z,100513.03
2022-09-07T11:03:24.926Z,100516.19
2022-09-07T11:05:36.041Z,100507.44
2022-09-07T11:08:13.332Z,100503.94
2022-09-07T11:10:47.144Z,100509.44
2022-09-07T11:13:16.924Z,100519.88
2022-09-07T11:15:48.010Z,100517.41
2022-09-07T11:18:22.676Z,100515.09
2022-09-07T11:20:55.349Z,100513.16
2022-09-07T11:23:44.470Z,100505.34
2022-09-07T11:26:38.178Z,100517.88
2022-09-07T11:29:29.832Z,100502.28
2022-09-07T11:32:04.679Z,100526.47
2022-09-07T11:34:58.925Z,100529.69
2022-09-07T11:37:46.491Z,100533.59
2022-09-07T11:40:29.930Z,100542.84
2022-09-07T11:43:05.245Z,100534.94
2022-09-07T11:45:51.467Z,100523.31
2022-09-07T11:48:21.837Z,100523.78
2022-09-07T11:50:52.032Z,100485.56
2022-09-07T11:53:21.996Z,100518.66
2022-09-07T11:55:50.655Z,100525.19
2022-09-07T11:58:48.189Z,100521.56
2022-09-07T12:01:20.853Z,100508.91
2022-09-07T12:04:02.074Z,100501.81
2022-09-07T12:06:53.389Z,100494.56
2022-09-07T12:09:35.109Z,100491.53
2022-09-07T12:12:26.933Z,100494.94
2022-09-07T12:15:03.219Z,100491.31
2022-09-07T12:18:01.342Z,100488.72
2022-09-07T12:20:48.406Z,100480.31
2022-09-07T12:23:14.993Z,100476.78
2022-09-07T12:25:43.639Z,100469.25
2022-09-07T12:28:21.878Z,100470.19
2022-09-07T12:30:59.532Z,100477.75
2022-09-07T12:33:34.716Z,100473.72
2022-09-07T12:36:02.463Z,100449.88
2022-09-07T12:38:32.093Z,100492.16
2022-09-07T12:41:00.713Z,100482.66
2022-09-07T12:43:52.632Z,100487.84
2022-09-07T12:46:40.404Z,100484.59
2022-09-07T12:49:36.518Z,100482.31
2022-09-07T12:52:21.855Z,100478.22
2022-09-07T12:55:29.517Z,100480.59
2022-09-07T12:58:24.883Z,100475.59
2022-09-07T13:01:05.431Z,100478.66
2022-09-07T13:03:51.372Z,100486.38
2022-09-07T13:09:37.072Z,100479.31
2022-09-07T13:15:31.658Z,100482.06
2022-09-07T13:17:58.236Z,100474.78
2022-09-07T13:20:30.220Z,100465.97
2022-09-07T13:23:09.489Z,100465.25
2022-09-07T13:25:45.597Z,100460.72
2022-09-07T13:28:37.685Z,100464.91
2022-09-07T13:31:16.613Z,100475.28
2022-09-07T13:33:50.552Z,100480.31
2022-09-07T13:36:25.730Z,100483.31
2022-09-07T13:38:53.730Z,100469.66
2022-09-07T13:41:29.966Z,100466.47
2022-09-07T13:44:00.386Z,100436.13
2022-09-07T13:46:39.307Z,100458.47
2022-09-07T13:49:30.342Z,100460.38
2022-09-07T13:52:18.220Z,100461.88
2022-09-07T13:55:25.750Z,100456.69
2022-09-07T13:58:26.543Z,100449.44
2022-09-07T14:00:55.196Z,100447.16
2022-09-07T14:03:24.355Z,100433.50
2022-09-07T14:06:22.558Z,100414.03
2022-09-07T14:08:55.009Z,100437.56
2022-09-07T14:11:36.859Z,100442.31
2022-09-07T14:14:14.315Z,100437.94
2022-09-07T14:16:47.122Z,100430.53
2022-09-07T14:19:24.093Z,100390.81
2022-09-07T14:21:59.568Z,100421.00
2022-09-07T14:24:36.249Z,100435.19
2022-09-07T14:27:04.552Z,100439.47
2022-09-07T14:29:33.355Z,100440.47
2022-09-07T14:32:01.915Z,100440.38
2022-09-07T14:34:32.193Z,100438.34
2022-09-07T14:37:01.705Z,100395.22
2022-09-07T14:39:35.633Z,100422.81
2022-09-07T14:42:03.755Z,100422.50
2022-09-07T14:44:39.390Z,100431.44
2022-09-07T14:47:11.682Z,100432.00
2022-09-07T14:49:38.763Z,100397.84
2022-09-07T14:52:05.579Z,100431.63
2022-09-07T14:54:33.956Z,100437.69
2022-09-07T14:57:10.101Z,100434.63
2022-09-07T14:59:42.320Z,100426.34
2022-09-07T15:02:17.836Z,100429.97
2022-09-07T15:04:49.362Z,100419.13
2022-09-07T15:07:38.830Z,100424.25
2022-09-07T15:10:20.846Z,100426.66
2022-09-07T15:12:52.714Z,100413.53
2022-09-07T15:15:21.777Z,100428.44
2022-09-07T15:17:48.881Z,100409.66
2022-09-07T15:20:44.279Z,100421.91
2022-09-07T15:23:16.187Z,100429.50
2022-09-07T15:25:49.681Z,100389.38
2022-09-07T15:34:11.329Z,100408.06
2022-09-07T15:36:40.764Z,100386.22
2022-09-07T15:39:08.095Z,100403.84
2022-09-07T15:41:34.871Z,100372.34
2022-09-07T15:44:01.603Z,100409.34
2022-09-07T15:46:28.393Z,100397.63
2022-09-07T15:48:55.674Z,100399.66
2022-09-07T15:54:14.240Z,100405.63
2022-09-07T15:56:42.702Z,100396.06
2022-09-07T15:59:10.502Z,100406.84
2022-09-07T16:01:54.696Z,100406.22
2022-09-07T16:04:24.139Z,100393.94
2022-09-07T16:06:50.931Z,100398.19
2022-09-07T16:09:21.121Z,100410.09
2022-09-07T16:11:50.818Z,100385.53
2022-09-07T16:14:17.726Z,100384.84
2022-09-07T16:19:34.961Z,100377.63
2022-09-07T16:22:03.134Z,100387.38
2022-09-07T16:24:29.942Z,100391.53
2022-09-07T16:26:56.514Z,100366.41
2022-09-07T16:29:23.393Z,100388.03
2022-09-07T16:34:36.627Z,100316.13
2022-09-07T16:37:03.631Z,100381.25
2022-09-07T16:39:30.316Z,100379.25
2022-09-07T16:41:56.960Z,100378.06
2022-09-07T16:44:23.767Z,100361.34
2022-09-07T16:46:50.597Z,100358.72
2022-09-07T16:49:17.708Z,100367.50
2022-09-07T16:51:45.697Z,100380.44
2022-09-07T16:54:17.031Z,100379.13
2022-09-07T16:56:43.600Z,100323.53
2022-09-07T16:59:15.890Z,100353.19
2022-09-07T17:01:43.012Z,100352.81
2022-09-07T17:04:11.177Z,100357.63
2022-09-07T17:06:39.491Z,100352.91
2022-09-07T17:09:06.823Z,100319.75
2022-09-07T17:11:34.777Z,100332.91
2022-09-07T17:14:01.861Z,100337.38
2022-09-07T17:16:31.001Z,100343.47
2022-09-07T17:21:50.117Z,100363.63
2022-09-07T17:24:17.219Z,100317.66
2022-09-07T17:26:43.933Z,100349.47
2022-09-07T17:29:13.228Z,100328.09
2022-09-07T17:34:26.625Z,100340.34
2022-09-07T17:36:53.219Z,100327.66
2022-09-07T17:39:20.236Z,100363.53
2022-09-07T17:41:47.988Z,100354.38
2022-09-07T17:44:14.702Z,100372.41
2022-09-07T17:46:41.244Z,100379.56
2022-09-07T17:49:12.143Z,100381.81
2022-09-07T17:51:39.130Z,100369.81
2022-09-07T17:54:10.873Z,100345.78
2022-09-07T17:56:38.806Z,100377.06
2022-09-07T18:01:54.072Z,100367.34
2022-09-07T18:04:21.084Z,100367.59
2022-09-07T18:06:47.730Z,100380.59
2022-09-07T18:09:14.474Z,100350.75
2022-09-07T18:11:47.216Z,100374.81
2022-09-07T18:14:15.168Z,100378.56
2022-09-07T18:16:43.357Z,100383.31
2022-09-07T18:19:11.085Z,100372.34
2022-09-07T18:21:39.309Z,100384.75
2022-09-07T18:24:11.747Z,100386.97
2022-09-07T18:26:39.805Z,100390.19
2022-09-07T18:29:18.981Z,100399.63
2022-09-07T18:31:53.046Z,100389.50
2022-09-07T18:34:20.722Z,100390.00
2022-09-07T18:36:47.354Z,100354.28
2022-09-07T18:39:14.368Z,100388.03
2022-09-07T18:41:42.154Z,100390.75
2022-09-07T18:46:55.616Z,100389.09
2022-09-07T18:49:22.117Z,100373.44
2022-09-07T18:54:35.192Z,100390.47
2022-09-07T18:57:01.689Z,100388.97
2022-09-07T18:59:29.578Z,100371.28
2022-09-07T19:02:00.138Z,100369.84
2022-09-07T19:07:17.589Z,100380.97
2022-09-07T19:09:44.273Z,100360.44
2022-09-07T19:12:10.899Z,100378.75
2022-09-07T19:14:37.496Z,100376.75
2022-09-07T19:17:04.360Z,100328.78
2022-09-07T19:19:31.335Z,100356.28
2022-09-07T19:21:58.326Z,100352.91
2022-09-07T19:24:25.729Z,100322.25
2022-09-07T19:26:55.722Z,100355.69
2022-09-07T19:29:25.165Z,100337.28
2022-09-07T19:32:12.989Z,100358.44
2022-09-07T19:34:41.475Z,100368.44
2022-09-07T19:37:12.533Z,100361.28
2022-09-07T19:39:39.733Z,100352.22
2022-09-07T19:42:06.853Z,100324.84
2022-09-07T19:44:33.618Z,100348.13
2022-09-07T19:47:00.770Z,100329.88
2022-09-07T19:49:28.160Z,100329.72
2022-09-07T19:51:54.820Z,100319.31
2022-09-07T19:54:21.382Z,100327.75
2022-09-07T19:56:47.902Z,100347.59
2022-09-07T19:59:14.707Z,100349.03
2022-09-07T20:01:45.861Z,100344.13
2022-09-07T20:04:19.491Z,100337.66
2022-09-07T20:06:48.093Z,100340.78
2022-09-07T20:09:14.831Z,100309.19
2022-09-07T20:11:46.073Z,100340.38
2022-09-07T20:14:17.631Z,100341.84
2022-09-07T20:16:47.346Z,100340.63
2022-09-07T20:19:17.354Z,100329.47
2022-09-07T20:21:44.044Z,100294.22
2022-09-07T20:24:12.189Z,100334.19
2022-09-07T20:26:38.737Z,100288.28
2022-09-07T20:29:26.200Z,100317.63
2022-09-07T20:31:53.475Z,100271.88
2022-09-07T20:34:20.158Z,100314.09
2022-09-07T20:36:49.354Z,100313.81
2022-09-07T20:39:16.692Z,100293.81
2022-09-07T20:41:43.124Z,100310.09
2022-09-07T20:44:09.671Z,100318.69
2022-09-07T20:46:36.492Z,100321.50
2022-09-07T20:49:03.784Z,100287.59
2022-09-07T20:51:31.050Z,100317.38
2022-09-07T20:53:57.860Z,100289.09
2022-09-07T20:56:27.279Z,100294.06
2022-09-07T20:58:55.926Z,100307.69
2022-09-07T21:01:26.002Z,100303.44
2022-09-07T21:03:54.526Z,100300.16
2022-09-07T21:06:22.066Z,100285.44
2022-09-07T21:08:49.407Z,100286.44
2022-09-07T21:11:21.294Z,100278.81
2022-09-07T21:13:48.373Z,100305.69
2022-09-07T21:16:16.240Z,100299.88
2022-09-07T21:18:44.296Z,100319.88
2022-09-07T21:21:20.457Z,100281.50
2022-09-07T21:23:47.861Z,100275.81
2022-09-07T21:26:14.782Z,100319.53
2022-09-07T21:28:41.310Z,100312.22
2022-09-07T21:31:08.754Z,100283.59
2022-09-07T21:33:36.276Z,100305.59
2022-09-07T21:36:08.331Z,100295.16
2022-09-07T21:38:35.971Z,100304.25
2022-09-07T21:41:13.856Z,100313.06
2022-09-07T21:43:40.976Z,100311.81
2022-09-07T21:46:12.942Z,100304.63
2022-09-07T21:48:39.643Z,100293.69
2022-09-07T21:51:06.378Z,100277.03
2022-09-07T21:53:33.261Z,100265.78
2022-09-07T21:56:05.755Z,100287.31
2022-09-07T21:58:33.099Z,100247.00
2022-09-07T22:01:00.783Z,100286.91
2022-09-07T22:03:27.587Z,100263.03
2022-09-07T22:05:54.229Z,100284.59
2022-09-07T22:08:20.748Z,100241.59
2022-09-07T22:10:47.318Z,100271.47
2022-09-07T22:13:14.015Z,100271.94
2022-09-07T22:15:41.673Z,100271.09
2022-09-07T22:18:11.648Z,100263.06
2022-09-07T22:20:38.547Z,100241.69
2022-09-07T22:23:05.603Z,100236.88
2022-09-07T22:25:32.729Z,100246.88
2022-09-07T22:27:59.638Z,100251.22
2022-09-07T22:30:26.499Z,100207.91
2022-09-07T22:32:53.078Z,100242.72
2022-09-07T22:35:19.918Z,100249.06
2022-09-07T22:37:46.499Z,100252.03
2022-09-07T22:40:14.739Z,100253.75
2022-09-07T22:42:41.939Z,100239.84
2022-09-07T22:45:09.103Z,100260.84
2022-09-07T22:47:35.642Z,100221.22
2022-09-07T22:50:02.211Z,100257.50
2022-09-07T22:52:28.979Z,100251.53
2022-09-07T22:54:55.455Z,100249.63
2022-09-07T22:57:21.993Z,100248.78
2022-09-07T22:59:48.502Z,100240.84
2022-09-07T23:02:14.961Z,100244.59
2022-09-07T23:04:41.721Z,100223.22
2022-09-07T23:07:08.300Z,100216.06
2022-09-07T23:09:35.188Z,100243.00
2022-09-07T23:12:01.975Z,100212.22
2022-09-07T23:14:28.589Z,100200.97
2022-09-07T23:16:55.174Z,100216.19
2022-09-07T23:19:21.839Z,100217.19
2022-09-07T23:21:51.283Z,100228.22
2022-09-07T23:24:18.685Z,100215.94
2022-09-07T23:26:46.931Z,100231.16
2022-09-07T23:29:14.536Z,100231.34
2022-09-07T23:31:41.771Z,100225.81
2022-09-07T23:34:08.998Z,100217.81
2022-09-07T23:36:36.680Z,100182.28
2022-09-07T23:39:03.633Z,100225.56
2022-09-07T23:41:30.501Z,100117.66
2022-09-07T23:43:57.685Z,100195.97
2022-09-07T23:46:24.562Z,100203.88
2022-09-07T23:48:51.268Z,100159.19
2022-09-07T23:51:23.481Z,100158.78
2022-09-07T23:53:51.134Z,100189.13
2022-09-07T23:56:17.684Z,100170.00
2022-09-07T23:58:44.244Z,100189.06
